Time;durP1;ratioP1;P1;durP2;ratioP2;P2;SDS_P1;SDS_P2;PMS_P1;PMS_P2;Temp;Humidity;BMP_temperature;BMP_pressure;BME280_temperature;BME280_humidity;BME280_pressure;Samples;Min_cycle;Max_cycle;Signal;HPM_P1;HPM_P2
2021/04/13 00:03:03;;;;;;;11.10;7.03;;;;;;;4.78;71.91;101288.94;2190989;79;28838;-60
2021/04/13 00:06:06;;;;;;;9.95;7.65;;;;;;;4.81;71.88;101296.88;2150025;81;31147;-60
2021/04/13 00:09:22;;;;;;;14.80;7.87;;;;;;;4.84;71.91;101302.59;2136767;81;33058;-60
2021/04/13 00:12:36;;;;;;;12.60;8.10;;;;;;;4.90;71.95;101295.91;2337202;76;27661;-61
2021/04/13 00:15:52;;;;;;;12.53;8.40;;;;;;;4.88;72.07;101294.18;2294844;77;27757;-60
2021/04/13 00:18:55;;;;;;;12.73;9.78;;;;;;;4.88;71.89;101302.15;2294580;77;28836;-61
2021/04/13 00:21:58;;;;;;;14.05;10.80;;;;;;;4.87;71.91;101298.59;2300918;77;31129;-61
2021/04/13 00:25:01;;;;;;;13.95;10.30;;;;;;;4.86;72.03;101297.73;2197558;80;33852;-59
2021/04/13 00:28:07;;;;;;;16.75;11.65;;;;;;;4.86;71.98;101299.05;2214773;80;29555;-58
2021/04/13 00:31:09;;;;;;;;;;;;;;;4.82;71.92;101300.41;2208688;79;27714;-58
2021/04/13 00:34:29;;;;;;;17.00;10.82;;;;;;;4.80;72.03;101298.23;2213699;80;29832;-58
2021/04/13 00:37:32;;;;;;;14.10;9.55;;;;;;;4.78;72.14;101301.35;2228195;78;31132;-58
2021/04/13 00:40:37;;;;;;;13.72;9.70;;;;;;;4.81;72.22;101298.64;2186176;80;34045;-59
2021/04/13 00:43:41;;;;;;;;;;;;;;;4.83;72.19;101297.75;2262255;78;28841;-58
2021/04/13 00:46:50;;;;;;;19.35;12.37;;;;;;;4.86;72.26;101301.71;2246321;78;27693;-60
2021/04/13 00:49:56;;;;;;;14.87;11.43;;;;;;;4.84;72.28;101306.16;2180763;80;29582;-64
2021/04/13 00:53:01;;;;;;;17.30;12.03;;;;;;;4.81;72.11;101298.64;2218699;80;32096;-61
2021/04/13 00:56:12;;;;;;;15.93;11.40;;;;;;;4.77;72.14;101292.48;2223629;78;33128;-61
2021/04/13 00:59:17;;;;;;;21.77;11.03;;;;;;;4.76;72.27;101300.02;2232245;78;28912;-62
2021/04/13 01:02:29;;;;;;;16.62;11.18;;;;;;;4.72;72.19;101300.94;2183513;80;27633;-61
2021/04/13 01:09:24;;;;;;;11.20;7.97;;;;;;;4.60;72.00;101305.93;2341589;76;27769;-60
2021/04/13 01:12:30;;;;;;;8.60;6.70;;;;;;;4.52;72.07;101303.77;2305794;77;27673;-60
2021/04/13 01:15:32;;;;;;;9.23;7.05;;;;;;;4.44;71.88;101295.01;2302130;77;28752;-61
2021/04/13 01:18:38;;;;;;;9.63;7.42;;;;;;;4.40;71.98;101298.11;2302791;77;31124;-60
2021/04/13 01:22:01;;;;;;;9.43;7.85;;;;;;;4.38;71.96;101295.94;2297689;77;33990;-60
2021/04/13 01:25:22;;;;;;;11.03;8.03;;;;;;;4.39;72.05;101297.25;2278293;77;28564;-61
2021/04/13 01:28:29;;;;;;;13.22;9.03;;;;;;;4.41;72.23;101297.22;2277197;77;27690;-60
2021/04/13 01:31:48;;;;;;;11.38;9.20;;;;;;;4.43;72.18;101303.86;2303732;77;28814;-60
2021/04/13 01:35:01;;;;;;;13.55;9.58;;;;;;;4.42;72.09;101300.31;2296293;77;33186;-61
2021/04/13 01:38:14;;;;;;;11.05;8.48;;;;;;;4.42;72.08;101306.94;2288147;77;33126;-60
2021/04/13 01:41:21;;;;;;;12.35;8.78;;;;;;;4.39;72.06;101306.53;2272739;77;28863;-60
2021/04/13 01:44:11;;;;;;;15.72;10.25;;;;;;;4.37;72.05;101306.98;2282513;77;27699;-61
2021/04/13 01:47:17;;;;;;;13.98;9.65;;;;;;;4.34;72.10;101311.44;2271213;77;28810;-60
2021/04/13 01:50:36;;;;;;;12.40;10.38;;;;;;;4.35;72.16;101310.55;2210663;80;30348;-60
2021/04/13 01:53:45;;;;;;;15.30;10.60;;;;;;;4.38;72.29;101313.19;2251003;78;33129;-60
2021/04/13 01:57:04;;;;;;;16.00;8.38;;;;;;;4.40;72.42;101314.92;2243671;78;28888;-60
2021/04/13 02:00:35;;;;;;;13.43;8.88;;;;;;;4.40;72.25;101322.89;2199815;80;27690;-60
2021/04/13 02:04:01;;;;;;;14.03;8.55;;;;;;;4.39;72.30;101315.81;2214442;80;29254;-60
2021/04/13 02:07:16;;;;;;;10.25;7.00;;;;;;;4.36;72.19;101320.27;2200941;80;31994;-60
2021/04/13 02:10:24;;;;;;;10.18;6.35;;;;;;;4.30;72.16;101324.28;2204406;80;33154;-60
2021/04/13 02:13:33;;;;;;;11.85;7.17;;;;;;;4.25;72.09;101325.66;2200297;80;28977;-61
2021/04/13 02:16:50;;;;;;;11.08;7.70;;;;;;;4.26;72.26;101327.41;2190299;80;27636;-64
2021/04/13 02:19:53;;;;;;;11.55;7.78;;;;;;;4.28;72.38;101326.96;2203561;80;29220;-61
2021/04/13 02:22:55;;;;;;;13.00;8.28;;;;;;;4.27;72.42;101329.17;2205973;80;32161;-59
2021/04/13 02:26:00;;;;;;;14.35;8.55;;;;;;;4.28;72.53;101320.33;2218395;80;33110;-60
2021/04/13 02:29:03;;;;;;;10.95;7.58;;;;;;;4.30;72.57;101326.52;2256846;78;28858;-60
2021/04/13 02:32:22;;;;;;;11.12;7.83;;;;;;;4.31;72.57;101328.70;2232716;78;28220;-61
2021/04/13 02:35:29;;;;;;;13.28;8.45;;;;;;;4.37;72.58;101328.67;2194322;80;29765;-60
2021/04/13 02:38:31;;;;;;;12.60;8.70;;;;;;;4.41;72.70;101330.38;2256250;78;31198;-59
2021/04/13 02:41:41;;;;;;;13.00;8.63;;;;;;;4.45;72.60;101325.95;2186587;78;32304;-60
2021/04/13 02:45:01;;;;;;;14.53;8.70;;;;;;;4.46;72.51;101330.38;2205371;79;28847;-60
2021/04/13 02:48:08;;;;;;;11.55;7.10;;;;;;;4.46;72.41;101333.03;2200907;79;28120;-60
2021/04/13 02:51:14;;;;;;;11.33;8.03;;;;;;;4.43;72.23;101325.08;2184295;80;28840;-59
2021/04/13 02:54:23;;;;;;;15.23;9.28;;;;;;;4.36;72.26;101326.45;2214550;80;31070;-59
2021/04/13 02:57:45;;;;;;;12.63;8.25;;;;;;;4.30;72.06;101325.19;2207823;80;33124;-59
2021/04/13 03:00:51;;;;;;;10.72;7.35;;;;;;;4.24;72.04;101330.52;2199125;80;28897;-60
2021/04/13 03:03:56;;;;;;;9.43;6.83;;;;;;;4.13;72.08;101323.09;2216219;79;27787;-60
2021/04/13 03:06:58;;;;;;;;;;;;;;;4.03;72.10;101321.80;2185966;80;28840;-60
2021/04/13 03:10:08;;;;;;;11.10;6.20;;;;;;;4.01;72.29;101324.91;2223617;80;32373;-59
2021/04/13 03:13:15;;;;;;;9.28;6.20;;;;;;;3.89;72.35;101324.98;2224731;80;32649;-60
2021/04/13 03:16:22;;;;;;;9.03;5.75;;;;;;;3.86;72.47;101324.56;2188256;80;29987;-60
2021/04/13 03:19:27;;;;;;;9.90;7.10;;;;;;;3.79;72.32;101322.81;2185998;80;28613;-61
2021/04/13 03:22:31;;;;;;;7.95;5.97;;;;;;;3.77;72.45;101321.52;2206085;80;28829;-60
2021/04/13 03:25:37;;;;;;;7.45;5.15;;;;;;;3.75;72.51;101319.31;2216355;80;32005;-61
2021/04/13 03:28:46;;;;;;;8.78;5.37;;;;;;;3.64;72.28;101314.52;2220026;80;35517;-59
2021/04/13 03:31:49;;;;;;;8.38;5.58;;;;;;;3.57;72.37;101316.73;2200443;80;28912;-60
2021/04/13 03:34:52;;;;;;;8.50;6.22;;;;;;;3.48;72.41;101313.69;2221186;80;27720;-59
2021/04/13 03:37:56;;;;;;;10.40;7.58;;;;;;;3.42;72.54;101316.34;2178082;80;28817;-60
2021/04/13 03:40:59;;;;;;;9.73;5.97;;;;;;;3.36;72.63;101323.00;2203236;80;31150;-60
2021/04/13 03:44:02;;;;;;;8.40;5.40;;;;;;;3.33;72.72;101317.25;2203754;80;34029;-60
2021/04/13 03:47:11;;;;;;;9.13;5.55;;;;;;;3.32;72.89;101321.69;2188597;80;29317;-60
2021/04/13 03:50:22;;;;;;;16.23;6.92;;;;;;;3.32;72.92;101315.06;2219774;80;27692;-60
2021/04/13 03:53:33;;;;;;;38.42;20.65;;;;;;;3.37;73.05;101312.85;2222094;80;31170;-60
2021/04/13 03:56:41;;;;;;;23.12;16.10;;;;;;;3.41;73.06;101306.62;2192842;80;31245;-60
2021/04/13 03:59:45;;;;;;;11.78;7.35;;;;;;;3.43;73.04;101311.48;2188400;80;33214;-60
2021/04/13 04:02:49;;;;;;;18.25;12.88;;;;;;;3.31;72.99;101289.92;2196529;80;32981;-60
2021/04/13 04:05:56;;;;;;;19.55;13.53;;;;;;;3.31;72.99;101289.92;2223083;80;27847;-60
2021/04/13 04:09:15;;;;;;;19.27;13.38;;;;;;;3.38;73.00;101312.83;2191032;80;28827;-59
2021/04/13 04:12:27;;;;;;;19.57;13.05;;;;;;;3.31;72.99;101313.76;2137049;82;32132;-60
2021/04/13 04:15:41;;;;;;;31.97;21.77;;;;;;;3.32;73.13;101312.84;2188535;80;34071;-60
2021/04/13 04:18:49;;;;;;;18.87;11.55;;;;;;;3.32;73.06;101327.41;2180577;81;29678;-60
2021/04/13 04:22:04;;;;;;;11.22;8.55;;;;;;;3.33;73.07;101328.74;2149643;81;27679;-60
2021/04/13 04:25:24;;;;;;;72.78;42.40;;;;;;;3.35;73.03;101328.73;2143728;83;29391;-60
2021/04/13 04:28:33;;;;;;;18.50;11.43;;;;;;;3.38;73.10;101331.38;2178410;81;31133;-60
2021/04/13 04:31:39;;;;;;;21.17;15.05;;;;;;;3.44;73.00;101334.02;2199140;80;33220;-61
2021/04/13 04:34:51;;;;;;;52.33;36.93;;;;;;;3.50;73.12;101333.11;2184050;80;29638;-59
2021/04/13 04:38:09;;;;;;;16.52;11.60;;;;;;;3.60;73.09;101341.91;2156360;81;27791;-60
2021/04/13 04:41:11;;;;;;;15.58;9.35;;;;;;;3.66;73.33;101352.45;2164776;81;31182;-60
2021/04/13 04:44:23;;;;;;;15.75;10.63;;;;;;;3.77;73.36;101352.42;2170862;81;32311;-60
2021/04/13 04:47:34;;;;;;;17.52;10.15;;;;;;;3.86;73.36;101358.13;2178283;80;35460;-60
2021/04/13 04:50:36;;;;;;;16.67;9.93;;;;;;;3.94;73.43;101357.20;2151259;81;28870;-61
2021/04/13 04:53:41;;;;;;;16.75;10.70;;;;;;;4.05;73.41;101363.77;2201601;80;27853;-61
2021/04/13 04:56:43;;;;;;;;;;;;;;;4.11;73.40;101373.46;2198612;80;28926;-63
2021/04/13 04:59:45;;;;;;;18.90;9.98;;;;;;;4.19;73.23;101368.11;2177112;81;31155;-60
2021/04/13 05:02:47;;;;;;;18.20;9.98;;;;;;;4.25;73.18;101373.39;2172197;81;33932;-61
2021/04/13 05:05:50;;;;;;;16.10;10.15;;;;;;;4.30;73.08;101364.07;2220548;80;28133;-61
2021/04/13 05:08:54;;;;;;;21.70;12.28;;;;;;;4.39;73.30;101373.28;2199263;80;27751;-60
2021/04/13 05:11:56;;;;;;;16.90;9.65;;;;;;;4.45;73.16;101379.89;2250334;78;28831;-61
2021/04/13 05:14:58;;;;;;;27.02;13.85;;;;;;;4.53;73.29;101374.09;2232494;77;31564;-60
2021/04/13 05:18:00;;;;;;;19.57;11.55;;;;;;;4.60;73.04;101372.28;2262316;78;34124;-61
2021/04/13 05:21:03;;;;;;;18.45;12.07;;;;;;;4.68;73.02;101374.88;2225300;78;28853;-60
2021/04/13 05:24:27;;;;;;;23.92;13.62;;;;;;;4.74;72.84;101374.80;2220809;80;27649;-61
2021/04/13 05:27:29;;;;;;;21.65;12.20;;;;;;;4.79;72.80;101377.45;2156178;82;28886;-61
2021/04/13 05:30:31;;;;;;;17.52;11.35;;;;;;;4.84;72.69;101375.18;2165879;81;31273;-61
2021/04/13 05:33:34;;;;;;;16.25;10.08;;;;;;;4.85;72.65;101367.66;2154829;82;33126;-61
2021/04/13 05:36:38;;;;;;;18.05;9.15;;;;;;;4.89;72.49;101367.59;2154501;81;28849;-61
2021/04/13 05:39:40;;;;;;;16.02;9.30;;;;;;;4.95;72.54;101366.23;2172416;81;28405;-61
2021/04/13 05:42:42;;;;;;;13.80;8.85;;;;;;;5.04;72.38;101375.45;2171518;81;30012;-61
2021/04/13 05:45:47;;;;;;;12.55;8.85;;;;;;;5.12;72.38;101376.25;2156260;82;32224;-61
2021/04/13 05:48:50;;;;;;;14.87;9.73;;;;;;;5.25;72.38;101371.70;2152297;81;34288;-60
2021/04/13 05:51:52;;;;;;;17.10;9.85;;;;;;;5.29;72.19;101366.80;2183505;81;28927;-60
2021/04/13 05:54:54;;;;;;;15.18;10.03;;;;;;;5.39;72.17;101369.34;2156310;82;27616;-60
2021/04/13 05:58:01;;;;;;;16.20;11.18;;;;;;;5.50;72.16;101365.25;2156381;82;29717;-61
2021/04/13 06:01:14;;;;;;;16.40;10.03;;;;;;;5.63;71.80;101370.38;2250778;77;27755;-60
2021/04/13 06:04:16;;;;;;;24.18;12.13;;;;;;;5.63;71.85;101377.02;2187177;80;27654;-60
2021/04/13 06:07:19;;;;;;;16.15;11.15;;;;;;;5.70;71.74;101378.30;2217503;80;28820;-59
2021/04/13 06:10:23;;;;;;;17.52;11.22;;;;;;;5.76;71.57;101382.22;2191949;80;31568;-60
2021/04/13 06:13:26;;;;;;;18.42;10.70;;;;;;;5.81;71.24;101378.17;2149435;81;33097;-60
2021/04/13 06:16:38;;;;;;;21.25;12.70;;;;;;;5.88;71.05;101386.48;2178886;81;29373;-60
2021/04/13 06:19:41;;;;;;;17.17;10.18;;;;;;;5.97;71.29;101400.11;2193067;80;27720;-60
2021/04/13 06:22:45;;;;;;;15.75;9.25;;;;;;;6.11;71.54;101403.97;2185930;80;31168;-60
2021/04/13 06:25:47;;;;;;;17.12;8.40;;;;;;;6.21;70.80;101397.61;2185533;80;31214;-61
2021/04/13 06:28:56;;;;;;;12.37;7.12;;;;;;;6.32;70.88;101398.80;2174921;81;33129;-61
2021/04/13 06:32:08;;;;;;;8.98;6.80;;;;;;;6.43;70.40;101399.98;2174175;81;28904;-61
2021/04/13 06:35:20;;;;;;;12.23;6.83;;;;;;;6.53;70.25;101396.30;2174367;81;27892;-62
2021/04/13 06:38:29;;;;;;;10.95;7.35;;;;;;;6.54;69.59;101393.59;2174229;81;29717;-62
2021/04/13 06:41:55;;;;;;;10.10;7.85;;;;;;;6.63;70.27;101387.69;2174193;81;32241;-60
2021/04/13 06:45:38;;;;;;;12.13;6.33;;;;;;;6.79;70.04;101395.00;2150952;82;34006;-58
2021/04/13 06:48:52;;;;;;;18.42;11.03;;;;;;;6.91;70.05;101394.78;2150856;82;29765;-59
2021/04/13 06:52:34;;;;;;;16.02;8.80;;;;;;;7.00;69.33;101399.08;2150887;82;27940;-60
2021/04/13 06:56:25;;;;;;;12.83;8.17;;;;;;;7.07;69.60;101407.41;2337910;76;30288;-61
2021/04/13 06:59:44;;;;;;;11.55;8.13;;;;;;;7.15;69.98;101405.94;2301480;77;27925;-61
2021/04/13 07:02:58;;;;;;;13.20;8.03;;;;;;;7.30;69.83;101406.11;2301236;77;28793;-61
2021/04/13 07:06:12;;;;;;;11.68;8.45;;;;;;;7.33;69.00;101407.86;2301282;77;32094;-60
2021/04/13 07:09:31;;;;;;;;;;;;;;;7.38;69.34;101406.86;2304149;77;34050;-61
2021/04/13 07:12:45;;;;;;;13.90;9.75;;;;;;;7.51;69.39;101406.19;2301572;77;28605;-60
2021/04/13 07:16:15;;;;;;;14.23;10.60;;;;;;;7.62;69.37;101401.09;2301335;77;27924;-60
2021/04/13 07:19:35;;;;;;;16.95;11.43;;;;;;;7.73;69.08;101400.41;2300999;77;29717;-59
2021/04/13 07:22:54;;;;;;;12.10;7.92;;;;;;;7.86;68.92;101398.38;2268626;77;32104;-60
2021/04/13 07:26:22;;;;;;;12.55;7.53;;;;;;;7.93;68.30;101402.70;2301289;77;33111;-61
2021/04/13 07:29:40;;;;;;;19.50;11.00;;;;;;;7.85;67.67;101389.95;2300821;77;29741;-60
2021/04/13 07:32:47;;;;;;;20.12;12.82;;;;;;;7.76;67.76;101388.34;2267635;77;28079;-59
2021/04/13 07:35:55;;;;;;;16.40;9.85;;;;;;;7.79;67.86;101382.95;2301030;77;29699;-61
2021/04/13 07:39:01;;;;;;;19.40;11.90;;;;;;;7.79;67.32;101382.95;2301000;77;32025;-62
2021/04/13 07:42:25;;;;;;;13.90;9.25;;;;;;;7.80;67.55;101399.39;2268068;77;33967;-62
2021/04/13 07:45:56;;;;;;;14.87;9.68;;;;;;;7.87;67.40;101395.67;2301356;77;29815;-61
2021/04/13 07:49:07;;;;;;;15.35;9.05;;;;;;;7.94;67.50;101403.12;2301341;77;27921;-60
2021/04/13 07:52:47;;;;;;;20.32;9.58;;;;;;;7.98;67.00;101398.11;2268268;77;28808;-60
2021/04/13 07:55:59;;;;;;;15.45;10.45;;;;;;;8.01;66.83;101398.06;2218387;79;31999;-63
2021/04/13 07:59:32;;;;;;;19.63;13.30;;;;;;;8.03;66.71;101390.91;2220035;79;34026;-63
2021/04/13 08:02:53;;;;;;;14.80;9.68;;;;;;;8.12;66.74;101394.27;2219822;79;29796;-59
2021/04/13 08:06:10;;;;;;;18.05;11.60;;;;;;;8.26;66.77;101390.86;2219958;79;27923;-61
2021/04/13 08:13:13;;;;;;;15.28;10.05;;;;;;;8.68;66.80;101398.39;2298314;77;27865;-61
2021/04/13 08:16:38;;;;;;;15.23;10.08;;;;;;;8.90;66.12;101398.30;2298352;77;29489;-63
2021/04/13 08:19:48;;;;;;;;;;;;;;;9.16;65.67;101397.22;2300998;77;32086;-62
2021/04/13 08:23:06;;;;;;;10.82;8.45;;;;;;;9.40;65.42;101403.70;2297335;77;33196;-62
2021/04/13 08:26:33;;;;;;;;;;;;;;;9.49;64.81;101400.77;2301311;77;29424;-61
2021/04/13 08:30:04;;;;;;;21.85;11.22;;;;;;;9.64;64.64;101405.27;2291283;77;28120;-62
2021/04/13 08:33:33;;;;;;;13.68;10.05;;;;;;;9.75;64.42;101399.19;2267737;77;29697;-61
2021/04/13 08:37:09;;;;;;;19.62;14.40;;;;;;;9.92;63.96;101398.68;2298809;77;31133;-61
2021/04/13 08:40:42;;;;;;;14.23;9.45;;;;;;;10.03;63.77;101402.38;2298658;77;34051;-62
2021/04/13 08:43:58;;;;;;;13.25;9.93;;;;;;;10.11;63.57;101400.34;2298480;77;29709;-62
2021/04/13 08:47:22;;;;;;;14.60;10.78;;;;;;;10.31;63.59;101399.76;2298471;77;28201;-61
2021/04/13 08:50:49;;;;;;;26.23;20.95;;;;;;;10.49;62.93;101397.47;2298489;77;29797;-62
2021/04/13 08:54:11;;;;;;;17.45;9.80;;;;;;;10.56;62.35;101386.95;2298089;77;31585;-62
2021/04/13 08:57:44;;;;;;;16.80;9.30;;;;;;;10.78;62.25;101391.62;2291882;77;33974;-61
2021/04/13 09:00:57;;;;;;;12.55;9.05;;;;;;;11.03;62.12;101383.63;2299059;77;29881;-61
2021/04/13 09:04:06;;;;;;;13.20;8.48;;;;;;;11.33;61.78;101375.44;2298670;77;27897;-61
2021/04/13 09:07:31;;;;;;;18.52;11.75;;;;;;;11.46;61.18;101382.59;2298520;77;28797;-61
2021/04/13 09:10:46;;;;;;;12.28;7.37;;;;;;;11.50;60.31;101375.30;2298575;77;31946;-61
2021/04/13 09:14:36;;;;;;;13.00;6.97;;;;;;;11.54;60.43;101374.27;2294976;77;33114;-60
2021/04/13 09:18:14;;;;;;;11.40;6.35;;;;;;;11.63;59.96;101375.73;2299086;77;29735;-61
2021/04/13 09:21:47;;;;;;;;;;;;;;;11.62;59.69;101360.09;2237695;78;27985;-61
2021/04/13 09:25:10;;;;;;;11.22;6.28;;;;;;;11.70;58.39;101367.84;2234520;79;28877;-60
2021/04/13 09:28:26;;;;;;;7.42;5.30;;;;;;;11.59;58.07;101372.27;2234295;79;31934;-60
2021/04/13 09:31:47;;;;;;;9.53;6.12;;;;;;;11.50;58.07;101378.84;2234293;79;34016;-60
2021/04/13 09:35:47;;;;;;;8.25;5.83;;;;;;;11.42;57.54;101378.27;2234394;79;29722;-60
2021/04/13 09:39:43;;;;;;;10.95;5.47;;;;;;;11.39;57.86;101380.60;2234079;78;27806;-60
2021/04/13 09:43:10;;;;;;;7.53;4.20;;;;;;;11.37;56.55;101371.73;2234288;79;29712;-60
2021/04/13 09:46:36;;;;;;;;;;;;;;;11.21;56.36;101370.03;2237154;79;32025;-61
2021/04/13 09:50:23;;;;;;;9.75;6.40;;;;;;;11.19;55.70;101365.67;2234004;79;33916;-62
2021/04/13 09:53:56;;;;;;;6.87;4.80;;;;;;;11.17;56.18;101365.70;2234153;79;28833;-60
2021/04/13 09:57:46;;;;;;;6.92;5.17;;;;;;;11.29;56.26;101364.40;2230127;79;28074;-61
2021/04/13 10:00:59;;;;;;;6.55;4.37;;;;;;;11.52;55.46;101362.23;2233899;78;29808;-61
2021/04/13 10:04:56;;;;;;;5.97;4.15;;;;;;;11.63;54.28;101361.84;2234724;79;32045;-59
2021/04/13 10:08:10;;;;;;;9.38;5.60;;;;;;;11.54;53.97;101352.31;2163014;82;28595;-60
2021/04/13 10:11:36;;;;;;;5.85;3.77;;;;;;;11.63;54.02;101342.19;2164308;82;29755;-59
2021/04/13 10:15:18;;;;;;;8.28;4.75;;;;;;;11.53;53.31;101339.83;2165010;82;27946;-61
2021/04/13 10:19:00;;;;;;;6.42;4.12;;;;;;;11.64;53.26;101331.38;2165152;82;29705;-62
2021/04/13 10:22:38;;;;;;;6.62;4.42;;;;;;;11.70;52.79;101338.33;2165023;82;31981;-60
2021/04/13 10:26:26;;;;;;;8.10;4.37;;;;;;;11.59;53.33;101332.49;2165119;82;34017;-60
2021/04/13 10:30:05;;;;;;;6.12;3.83;;;;;;;11.53;52.38;101330.44;2164926;82;29721;-61
2021/04/13 10:33:39;;;;;;;;;;;;;;;11.48;52.57;101325.73;2167415;82;27974;-60
2021/04/13 10:37:22;;;;;;;8.03;4.65;;;;;;;11.48;52.85;101327.52;2164940;82;28787;-59
2021/04/13 10:41:28;;;;;;;6.03;4.55;;;;;;;11.48;52.69;101327.06;2171787;79;32053;-59
2021/04/13 10:45:09;;;;;;;13.80;4.37;;;;;;;11.47;52.19;101322.63;2203048;79;33988;-60
2021/04/13 10:48:54;;;;;;;7.83;3.90;;;;;;;11.60;52.17;101323.03;2234221;79;28856;-61
2021/04/13 10:52:52;;;;;;;5.30;3.87;;;;;;;11.70;52.04;101318.19;2234310;79;27937;-60
2021/04/13 10:56:41;;;;;;;5.20;3.95;;;;;;;11.73;51.14;101320.77;2233622;79;29684;-62
2021/04/13 11:00:03;;;;;;;6.30;4.00;;;;;;;11.62;51.24;101310.43;2202283;79;30959;-59
2021/04/13 11:04:02;;;;;;;10.53;5.25;;;;;;;11.42;51.33;101313.87;2233687;78;33951;-59
2021/04/13 11:07:37;;;;;;;5.25;3.37;;;;;;;11.34;51.71;101319.52;2233708;78;28927;-59
2021/04/13 11:11:01;;;;;;;16.02;10.32;;;;;;;11.31;51.84;101303.52;2234041;79;27916;-60
2021/04/13 11:14:50;;;;;;;16.27;9.75;;;;;;;11.19;49.78;101308.86;2233778;79;28744;-61
2021/04/13 11:18:04;;;;;;;10.98;9.80;;;;;;;11.12;49.74;101295.73;2164355;81;32034;-61
2021/04/13 11:21:38;;;;;;;4.67;3.27;;;;;;;11.13;48.57;101291.67;2164185;80;33956;-61
2021/04/13 11:25:11;;;;;;;5.92;3.27;;;;;;;11.17;49.27;101294.63;2164126;82;28831;-60
2021/04/13 11:28:56;;;;;;;6.67;4.05;;;;;;;11.20;49.02;101294.52;2164464;82;27979;-61
2021/04/13 11:32:34;;;;;;;5.70;2.72;;;;;;;11.16;48.45;101294.70;2164378;82;29823;-61
2021/04/13 11:35:56;;;;;;;5.72;2.70;;;;;;;11.12;47.40;101286.34;2164470;82;32126;-61
2021/04/13 11:39:47;;;;;;;5.27;3.50;;;;;;;11.16;46.94;101292.02;2270465;76;29093;-61
2021/04/13 11:43:01;;;;;;;3.65;2.37;;;;;;;11.21;47.71;101297.62;2255004;78;28037;-61
2021/04/13 11:46:29;;;;;;;3.90;2.80;;;;;;;11.13;47.32;101293.02;2254896;78;28806;-61
2021/04/13 11:50:00;;;;;;;8.63;3.98;;;;;;;11.08;47.65;101301.23;2229148;79;32182;-60
2021/04/13 11:53:30;;;;;;;5.17;3.05;;;;;;;10.96;47.06;101303.45;2229841;79;33975;-60
2021/04/13 11:56:37;;;;;;;4.28;2.77;;;;;;;10.90;46.66;101297.85;2229655;79;29429;-60
2021/04/13 11:59:42;;;;;;;3.37;2.62;;;;;;;10.88;46.89;101297.89;2229581;79;27946;-61
2021/04/13 12:03:11;;;;;;;4.65;2.60;;;;;;;10.96;45.50;101290.91;2229855;79;29809;-61
2021/04/13 12:06:22;;;;;;;4.40;2.67;;;;;;;11.08;46.47;101284.24;2230215;79;32045;-60
2021/04/13 12:09:59;;;;;;;6.72;3.47;;;;;;;11.30;45.59;101276.77;2223365;79;33827;-60
2021/04/13 12:13:11;;;;;;;7.17;3.12;;;;;;;11.48;46.19;101277.87;2230242;79;29977;-61
2021/04/13 12:16:46;;;;;;;9.80;5.62;;;;;;;11.75;45.83;101279.97;2194685;79;28349;-61
2021/04/13 12:20:29;;;;;;;6.67;3.70;;;;;;;11.93;46.21;101273.48;2230336;79;29678;-60
2021/04/13 12:23:49;;;;;;;6.10;2.50;;;;;;;12.11;45.66;101267.41;2230317;79;32055;-61
2021/04/13 12:27:02;;;;;;;5.87;3.37;;;;;;;12.12;45.45;101261.09;2250506;78;33961;-60
2021/04/13 12:30:32;;;;;;;7.33;3.70;;;;;;;12.28;45.41;101257.78;2251762;78;28858;-61
2021/04/13 12:33:54;;;;;;;7.28;4.10;;;;;;;12.44;45.12;101252.62;2258103;78;27879;-61
2021/04/13 12:37:01;;;;;;;3.47;2.20;;;;;;;12.59;44.51;101251.97;2256645;78;29701;-61
2021/04/13 12:40:26;;;;;;;6.95;4.00;;;;;;;12.65;43.85;101240.56;2262944;78;32026;-61
2021/04/13 12:43:37;;;;;;;5.72;3.02;;;;;;;12.71;44.71;101230.41;2263264;78;33775;-61
2021/04/13 12:46:57;;;;;;;4.03;2.25;;;;;;;12.71;42.98;101230.89;2235149;78;29748;-61
2021/04/13 12:50:21;;;;;;;2.58;2.00;;;;;;;12.68;43.34;101225.64;2262429;78;27872;-60
2021/04/13 12:53:31;;;;;;;3.40;1.90;;;;;;;12.61;41.50;101219.18;2231938;78;28858;-62
2021/04/13 12:56:38;;;;;;;5.35;3.33;;;;;;;12.54;41.39;101212.34;2262470;78;32080;-62
2021/04/13 12:59:45;;;;;;;2.50;1.90;;;;;;;12.50;42.13;101201.31;2262045;78;33968;-63
2021/04/13 13:02:51;;;;;;;2.37;1.92;;;;;;;12.45;41.45;101203.31;2262321;78;29745;-61
2021/04/13 13:05:57;;;;;;;3.62;2.02;;;;;;;12.38;41.23;101199.16;2262455;78;27934;-61
2021/04/13 13:09:06;;;;;;;3.15;2.67;;;;;;;12.30;41.60;101196.80;2232602;78;29840;-61
2021/04/13 13:12:24;;;;;;;3.65;2.30;;;;;;;12.31;41.64;101194.52;2231639;78;30936;-62
2021/04/13 13:15:38;;;;;;;3.37;2.60;;;;;;;12.38;39.83;101190.61;2262115;78;33995;-62
2021/04/13 13:18:52;;;;;;;3.67;2.75;;;;;;;12.37;41.15;101192.89;2262995;78;29784;-61
2021/04/13 13:22:02;;;;;;;5.35;3.25;;;;;;;12.39;41.19;101192.36;2259069;78;27964;-61
2021/04/13 13:25:17;;;;;;;4.08;2.58;;;;;;;12.43;41.66;101187.27;2262252;78;29693;-62
2021/04/13 13:28:29;;;;;;;4.30;2.00;;;;;;;12.49;41.41;101186.13;2262046;78;32051;-61
2021/04/13 13:31:39;;;;;;;3.05;2.00;;;;;;;12.53;40.59;101189.09;2262244;78;33098;-62
2021/04/13 13:34:50;;;;;;;3.02;1.90;;;;;;;12.53;40.65;101187.74;2262670;78;29720;-62
2021/04/13 13:37:59;;;;;;;9.15;3.15;;;;;;;12.47;40.20;101182.63;2262115;78;27879;-62
2021/04/13 13:41:06;;;;;;;4.53;2.55;;;;;;;12.42;40.74;101186.86;2262413;78;28800;-62
2021/04/13 13:44:30;;;;;;;2.80;2.22;;;;;;;12.46;40.17;101176.84;2232341;78;32036;-61
2021/04/13 13:47:40;;;;;;;3.75;2.55;;;;;;;12.42;38.81;101179.25;2262202;78;33979;-61
2021/04/13 13:50:46;;;;;;;2.45;1.80;;;;;;;12.23;38.10;101180.52;2262357;78;29805;-61
2021/04/13 13:54:11;;;;;;;4.75;2.22;;;;;;;12.04;38.26;101171.89;2262438;78;27869;-62
2021/04/13 13:57:23;;;;;;;3.60;2.33;;;;;;;11.95;38.86;101159.69;2217031;78;29699;-62
2021/04/13 14:00:40;;;;;;;6.37;2.37;;;;;;;12.00;38.90;101171.16;2230797;78;32700;-62
2021/04/13 14:03:50;;;;;;;3.15;2.02;;;;;;;12.00;39.73;101164.89;2261884;78;36166;-61
2021/04/13 14:06:56;;;;;;;2.65;1.70;;;;;;;12.07;39.08;101165.53;2232247;78;29737;-62
2021/04/13 14:10:35;;;;;;;2.95;1.85;;;;;;;12.03;38.46;101162.57;2262209;78;27932;-61
2021/04/13 14:14:01;;;;;;;2.77;1.95;;;;;;;12.04;38.82;101157.60;2261866;78;28868;-61
2021/04/13 14:17:16;;;;;;;4.08;2.98;;;;;;;12.06;39.26;101150.36;2262095;78;31119;-61
2021/04/13 14:20:27;;;;;;;3.43;2.53;;;;;;;12.02;39.38;101146.05;2232726;78;33942;-61
2021/04/13 14:23:33;;;;;;;3.17;1.98;;;;;;;11.96;39.22;101145.33;2231906;78;29586;-60
2021/04/13 14:26:39;;;;;;;3.12;1.60;;;;;;;11.84;37.74;101145.36;2262221;78;27938;-61
2021/04/13 14:29:52;;;;;;;2.35;1.65;;;;;;;11.71;38.74;101142.78;2232799;78;28803;-60
2021/04/13 14:32:59;;;;;;;4.90;2.95;;;;;;;11.65;39.43;101142.56;2260752;78;31136;-60
2021/04/13 14:36:05;;;;;;;4.97;3.20;;;;;;;11.64;38.46;101145.33;2262126;78;34045;-60
2021/04/13 14:39:15;;;;;;;5.55;3.65;;;;;;;11.49;37.80;101140.09;2257164;78;29733;-62
2021/04/13 14:42:29;;;;;;;3.45;1.80;;;;;;;11.41;39.08;101133.70;2253151;78;28101;-61
2021/04/13 14:45:40;;;;;;;3.30;1.87;;;;;;;11.27;37.74;101142.27;2222465;78;29741;-60
2021/04/13 14:48:53;;;;;;;3.60;1.77;;;;;;;11.10;38.87;101138.44;2255473;78;31097;-61
2021/04/13 14:52:03;;;;;;;9.18;2.45;;;;;;;10.96;38.97;101133.21;2253556;78;33206;-61
2021/04/13 14:55:23;;;;;;;4.75;2.40;;;;;;;10.88;38.97;101141.06;2253508;78;29338;-62
2021/04/13 14:58:35;;;;;;;6.28;2.60;;;;;;;10.78;39.04;101138.33;2253765;78;28053;-61
2021/04/13 15:01:41;;;;;;;2.98;1.80;;;;;;;10.65;39.86;101128.52;2253529;78;28807;-62
2021/04/13 15:04:49;;;;;;;;;;;;;;;10.71;39.62;101131.43;2256689;78;32013;-61
2021/04/13 15:08:02;;;;;;;3.80;1.95;;;;;;;10.73;40.24;101128.23;2253644;78;33162;-61
2021/04/13 15:11:16;;;;;;;4.87;2.47;;;;;;;10.60;39.40;101124.67;2253711;78;29740;-60
2021/04/13 15:14:23;;;;;;;3.70;1.90;;;;;;;10.47;39.87;101127.39;2220809;78;27949;-62
2021/04/13 15:17:34;;;;;;;3.33;2.15;;;;;;;10.37;40.01;101127.26;2254491;78;28808;-62
2021/04/13 15:20:40;;;;;;;7.25;3.40;;;;;;;10.27;40.38;101123.58;2253829;78;32055;-60
2021/04/13 15:23:49;;;;;;;4.08;2.05;;;;;;;10.25;40.67;101124.57;2254774;78;33097;-60